Time;durP1;ratioP1;P1;durP2;ratioP2;P2;SDS_P1;SDS_P2;PMS_P1;PMS_P2;Temp;Humidity;BMP_temperature;BMP_pressure;BME280_temperature;BME280_humidity;BME280_pressure;Samples;Min_cycle;Max_cycle;Signal;HPM_P1;HPM_P2
2023/04/16 00:00:08;;;;;;;34.43;30.97;;;;;;;;;;5022486;28;20763;-87
2023/04/16 00:02:39;;;;;;;35.10;31.60;;;;;;;;;;5017102;28;20223;-86
2023/04/16 00:05:10;;;;;;;34.60;31.07;;;;;;;;;;4984901;28;20227;-87
2023/04/16 00:07:36;;;;;;;33.57;29.80;;;;;;;;;;5020415;28;20241;-87
2023/04/16 00:10:02;;;;;;;39.03;33.90;;;;;;;;;;4991032;28;20222;-87
2023/04/16 00:12:30;;;;;;;35.90;32.20;;;;;;;;;;5012071;28;20220;-88
2023/04/16 00:14:58;;;;;;;40.80;33.30;;;;;;;;;;4996768;28;20239;-87
2023/04/16 00:17:23;;;;;;;35.80;32.00;;;;;;;;;;5017433;28;20246;-86
2023/04/16 00:19:49;;;;;;;36.93;33.13;;;;;;;;;;5006206;28;20235;-86
2023/04/16 00:22:14;;;;;;;36.50;32.83;;;;;;;;;;5010649;28;20224;-86
2023/04/16 00:24:40;;;;;;;37.67;33.73;;;;;;;;;;5020070;28;20242;-86
2023/04/16 00:27:08;;;;;;;38.57;34.47;;;;;;;;;;5017800;28;20245;-86
2023/04/16 00:29:36;;;;;;;37.67;33.60;;;;;;;;;;5014505;28;20246;-86
2023/04/16 00:32:01;;;;;;;36.73;33.00;;;;;;;;;;5019391;28;20230;-88
2023/04/16 00:34:27;;;;;;;37.50;33.57;;;;;;;;;;4996011;28;20230;-87
2023/04/16 00:36:55;;;;;;;37.87;33.30;;;;;;;;;;4988646;28;20216;-87
2023/04/16 00:39:23;;;;;;;38.40;34.23;;;;;;;;;;4988938;28;20238;-86
2023/04/16 00:41:49;;;;;;;39.10;34.83;;;;;;;;;;4995081;28;20238;-86
2023/04/16 00:44:17;;;;;;;40.57;36.17;;;;;;;;;;5015030;28;20699;-87
2023/04/16 00:46:42;;;;;;;40.80;35.20;;;;;;;;;;5003711;28;20227;-86
2023/04/16 00:49:08;;;;;;;38.47;34.37;;;;;;;;;;4992186;28;20600;-86
2023/04/16 00:51:34;;;;;;;39.97;34.67;;;;;;;;;;5000718;28;20220;-86
2023/04/16 00:54:05;;;;;;;40.80;34.67;;;;;;;;;;5000415;28;20227;-86
2023/04/16 00:56:30;;;;;;;37.50;33.67;;;;;;;;;;4993216;28;20220;-88
2023/04/16 00:58:56;;;;;;;39.00;34.77;;;;;;;;;;5014441;28;20362;-88
2023/04/16 01:01:21;;;;;;;38.80;34.20;;;;;;;;;;4990886;28;20220;-88
2023/04/16 01:03:52;;;;;;;41.47;34.67;;;;;;;;;;5001808;28;20225;-87
2023/04/16 01:06:20;;;;;;;39.37;34.33;;;;;;;;;;5014389;28;20224;-87
2023/04/16 01:08:46;;;;;;;43.37;36.50;;;;;;;;;;5005700;28;20222;-86
2023/04/16 01:11:16;;;;;;;42.07;35.57;;;;;;;;;;5004500;28;20220;-87
2023/04/16 01:13:44;;;;;;;39.73;35.23;;;;;;;;;;5002822;28;20243;-88
2023/04/16 01:16:10;;;;;;;40.33;36.07;;;;;;;;;;5006594;28;20215;-87
2023/04/16 01:18:36;;;;;;;40.20;36.10;;;;;;;;;;4990566;28;20224;-86
2023/04/16 01:21:02;;;;;;;38.20;33.87;;;;;;;;;;5004670;28;20306;-87
2023/04/16 01:23:30;;;;;;;38.97;34.93;;;;;;;;;;4987241;28;20241;-88
2023/04/16 01:25:56;;;;;;;40.73;35.13;;;;;;;;;;4995656;28;20223;-86
2023/04/16 01:28:24;;;;;;;41.20;35.03;;;;;;;;;;5003076;28;20212;-87
2023/04/16 01:30:49;;;;;;;38.33;33.57;;;;;;;;;;4992231;28;20283;-85
2023/04/16 01:33:44;;;;;;;38.13;34.07;;;;;;;;;;5003343;28;20215;-87
2023/04/16 01:36:10;;;;;;;39.70;35.10;;;;;;;;;;4989567;28;20235;-86
2023/04/16 01:38:36;;;;;;;38.83;34.63;;;;;;;;;;5018121;28;20263;-86
2023/04/16 01:41:02;;;;;;;39.37;34.43;;;;;;;;;;4991968;28;20223;-87
2023/04/16 01:43:27;;;;;;;37.10;33.10;;;;;;;;;;5005627;28;20222;-87
2023/04/16 01:46:01;;;;;;;38.90;33.23;;;;;;;;;;4995614;28;20215;-87
2023/04/16 01:48:26;;;;;;;42.87;34.87;;;;;;;;;;4993348;28;20323;-87
2023/04/16 01:50:54;;;;;;;37.80;33.23;;;;;;;;;;4998484;28;20208;-86
2023/04/16 01:53:19;;;;;;;38.57;34.13;;;;;;;;;;5005203;28;20219;-86
2023/04/16 01:55:50;;;;;;;39.57;33.70;;;;;;;;;;5006331;28;20222;-86
2023/04/16 01:58:17;;;;;;;41.70;33.73;;;;;;;;;;5008450;28;20215;-86
2023/04/16 02:00:43;;;;;;;39.90;33.97;;;;;;;;;;5019642;28;20216;-87
2023/04/16 02:03:08;;;;;;;39.90;33.33;;;;;;;;;;5011357;28;20218;-88
2023/04/16 02:05:34;;;;;;;37.43;33.13;;;;;;;;;;5005655;28;20682;-86
2023/04/16 02:08:00;;;;;;;41.33;32.23;;;;;;;;;;4989734;28;20211;-87
2023/04/16 02:10:26;;;;;;;36.27;32.53;;;;;;;;;;5002070;28;20339;-86
2023/04/16 02:12:51;;;;;;;40.90;32.53;;;;;;;;;;5016601;28;20225;-87
2023/04/16 02:15:17;;;;;;;37.57;32.27;;;;;;;;;;4996198;28;20226;-86
2023/04/16 02:17:45;;;;;;;37.80;31.97;;;;;;;;;;5020515;28;20215;-87
2023/04/16 02:20:12;;;;;;;36.33;32.43;;;;;;;;;;5018022;28;20310;-87
2023/04/16 02:22:46;;;;;;;37.83;31.87;;;;;;;;;;5008848;28;20948;-87
2023/04/16 02:25:15;;;;;;;38.20;32.07;;;;;;;;;;5000089;28;20227;-87
2023/04/16 02:27:45;;;;;;;40.33;32.10;;;;;;;;;;5011042;28;20222;-88
2023/04/16 02:30:27;;;;;;;40.10;32.17;;;;;;;;;;5002769;28;20352;-87
2023/04/16 02:32:53;;;;;;;40.00;34.37;;;;;;;;;;5010139;28;20207;-88
2023/04/16 02:35:20;;;;;;;37.77;32.73;;;;;;;;;;4989416;28;20722;-86
2023/04/16 02:37:45;;;;;;;37.50;32.67;;;;;;;;;;4992130;28;20216;-87
2023/04/16 02:40:13;;;;;;;37.63;32.40;;;;;;;;;;5001735;28;20235;-87
2023/04/16 02:42:39;;;;;;;37.20;31.50;;;;;;;;;;4994916;28;20276;-87
2023/04/16 02:45:06;;;;;;;39.47;32.53;;;;;;;;;;5013532;28;20252;-87
2023/04/16 02:47:35;;;;;;;41.27;31.33;;;;;;;;;;5007567;28;20235;-86
2023/04/16 02:50:01;;;;;;;35.60;31.20;;;;;;;;;;5023139;28;20307;-86
2023/04/16 02:52:31;;;;;;;35.87;30.37;;;;;;;;;;4992529;28;20270;-88
2023/04/16 02:54:58;;;;;;;36.50;29.97;;;;;;;;;;5006673;28;20284;-87
2023/04/16 02:57:26;;;;;;;37.30;30.80;;;;;;;;;;4994431;28;20226;-87
2023/04/16 02:59:56;;;;;;;34.87;30.20;;;;;;;;;;5003747;28;20273;-86
2023/04/16 03:02:25;;;;;;;37.53;31.23;;;;;;;;;;4996609;28;20225;-86
2023/04/16 03:04:50;;;;;;;38.30;30.53;;;;;;;;;;5013651;28;20306;-87
2023/04/16 03:07:21;;;;;;;34.73;29.47;;;;;;;;;;5000375;28;20660;-87
2023/04/16 03:09:47;;;;;;;33.40;28.63;;;;;;;;;;4996687;28;20237;-85
2023/04/16 03:12:12;;;;;;;31.60;28.47;;;;;;;;;;5002013;28;20589;-85
2023/04/16 03:14:40;;;;;;;31.80;28.40;;;;;;;;;;5010541;28;20220;-87
2023/04/16 03:17:08;;;;;;;31.60;28.03;;;;;;;;;;5000811;28;20221;-87
2023/04/16 03:19:34;;;;;;;29.13;26.03;;;;;;;;;;5009028;28;20223;-86
2023/04/16 03:22:00;;;;;;;31.00;27.50;;;;;;;;;;5005836;28;20303;-87
2023/04/16 03:24:28;;;;;;;31.40;28.00;;;;;;;;;;5006767;28;20215;-87
2023/04/16 03:26:56;;;;;;;31.80;28.33;;;;;;;;;;5013868;28;20237;-87
2023/04/16 03:29:23;;;;;;;31.03;27.67;;;;;;;;;;4993375;28;20288;-88
2023/04/16 03:31:48;;;;;;;30.93;27.47;;;;;;;;;;5008217;28;20220;-86
2023/04/16 03:34:16;;;;;;;29.63;26.43;;;;;;;;;;5000464;28;20515;-88
2023/04/16 03:36:42;;;;;;;28.73;25.73;;;;;;;;;;4987460;28;20704;-87
2023/04/16 03:39:07;;;;;;;31.03;26.33;;;;;;;;;;5005353;28;20566;-87
2023/04/16 03:41:34;;;;;;;28.50;24.60;;;;;;;;;;5017581;28;20569;-86
2023/04/16 03:44:03;;;;;;;27.40;24.50;;;;;;;;;;5015140;28;20219;-86
2023/04/16 03:46:30;;;;;;;29.73;24.97;;;;;;;;;;4994589;28;20708;-87
2023/04/16 03:48:58;;;;;;;28.50;23.97;;;;;;;;;;5005033;28;20272;-87
2023/04/16 03:51:25;;;;;;;32.73;25.17;;;;;;;;;;5002628;28;20219;-87
2023/04/16 03:53:51;;;;;;;27.63;24.47;;;;;;;;;;5003554;28;20247;-86
2023/04/16 03:56:19;;;;;;;28.80;24.43;;;;;;;;;;5003291;28;20215;-86
2023/04/16 03:58:45;;;;;;;26.73;23.80;;;;;;;;;;4986511;28;20232;-87
2023/04/16 04:01:11;;;;;;;24.93;22.23;;;;;;;;;;5026809;28;20227;-89
2023/04/16 04:03:37;;;;;;;27.73;23.73;;;;;;;;;;5016310;28;20254;-86
2023/04/16 04:06:07;;;;;;;27.10;23.40;;;;;;;;;;5015972;28;20226;-86
2023/04/16 04:08:32;;;;;;;26.73;22.97;;;;;;;;;;5020352;28;20222;-85
2023/04/16 04:11:02;;;;;;;27.37;22.60;;;;;;;;;;5002727;28;20273;-87
2023/04/16 04:13:32;;;;;;;27.97;22.00;;;;;;;;;;5025446;28;20212;-87
2023/04/16 04:15:58;;;;;;;25.90;21.80;;;;;;;;;;5008203;28;20276;-86
2023/04/16 04:18:25;;;;;;;25.57;22.13;;;;;;;;;;5002063;28;20753;-85
2023/04/16 04:20:51;;;;;;;24.43;21.83;;;;;;;;;;4997062;28;20219;-86
2023/04/16 04:23:19;;;;;;;28.17;22.17;;;;;;;;;;5006397;28;20688;-87
2023/04/16 04:25:46;;;;;;;24.93;22.20;;;;;;;;;;4992305;28;20215;-87
2023/04/16 04:28:14;;;;;;;24.73;22.03;;;;;;;;;;5009314;28;20215;-87
2023/04/16 04:30:42;;;;;;;26.17;20.83;;;;;;;;;;5006011;28;20218;-86
2023/04/16 04:33:08;;;;;;;22.77;20.30;;;;;;;;;;4990881;28;20216;-87
2023/04/16 04:35:36;;;;;;;24.73;20.93;;;;;;;;;;5034570;28;20210;-87
2023/04/16 04:38:04;;;;;;;24.40;20.53;;;;;;;;;;5003800;28;20215;-87
2023/04/16 04:40:35;;;;;;;23.90;20.30;;;;;;;;;;5023411;28;20227;-86
2023/04/16 04:43:02;;;;;;;24.30;21.67;;;;;;;;;;5016646;28;20271;-86
2023/04/16 04:45:28;;;;;;;22.77;20.33;;;;;;;;;;5031158;28;20313;-86
2023/04/16 04:47:55;;;;;;;23.20;20.80;;;;;;;;;;5026012;28;20278;-88
2023/04/16 04:50:21;;;;;;;24.03;20.43;;;;;;;;;;5037694;28;20226;-86
2023/04/16 04:52:47;;;;;;;24.27;20.47;;;;;;;;;;5017485;28;20215;-87
2023/04/16 04:55:14;;;;;;;27.13;20.90;;;;;;;;;;5026669;28;20620;-86
2023/04/16 04:57:42;;;;;;;24.80;20.50;;;;;;;;;;5006038;28;20585;-87
2023/04/16 05:00:08;;;;;;;24.50;21.00;;;;;;;;;;5003443;28;20215;-87
2023/04/16 05:02:53;;;;;;;23.13;20.70;;;;;;;;;;4993730;28;20302;-87
2023/04/16 05:05:22;;;;;;;23.73;20.87;;;;;;;;;;5002155;28;20227;-87
2023/04/16 05:07:48;;;;;;;22.90;20.40;;;;;;;;;;4991342;28;20219;-88
2023/04/16 05:10:16;;;;;;;23.53;21.00;;;;;;;;;;4994810;28;20596;-86
2023/04/16 05:12:43;;;;;;;22.47;20.07;;;;;;;;;;5007500;28;20678;-87
2023/04/16 05:15:29;;;;;;;22.83;20.30;;;;;;;;;;5016671;28;20216;-87
2023/04/16 05:17:55;;;;;;;22.47;20.17;;;;;;;;;;4992866;28;20581;-86
2023/04/16 05:20:28;;;;;;;24.03;20.37;;;;;;;;;;4998545;28;20715;-86
2023/04/16 05:22:54;;;;;;;23.10;20.10;;;;;;;;;;5005526;28;20219;-87
2023/04/16 05:25:25;;;;;;;24.73;19.57;;;;;;;;;;4989314;28;20247;-87
2023/04/16 05:27:50;;;;;;;23.07;19.30;;;;;;;;;;5006464;28;20211;-85
2023/04/16 05:30:17;;;;;;;25.03;20.23;;;;;;;;;;5022776;28;20253;-87
2023/04/16 05:32:45;;;;;;;21.77;19.43;;;;;;;;;;4991537;28;20650;-87
2023/04/16 05:35:15;;;;;;;23.30;19.13;;;;;;;;;;4993237;28;20220;-87
2023/04/16 05:37:41;;;;;;;21.50;19.20;;;;;;;;;;4975578;28;20642;-87
2023/04/16 05:40:11;;;;;;;22.37;18.93;;;;;;;;;;4988142;28;20219;-86
2023/04/16 05:42:36;;;;;;;21.57;19.30;;;;;;;;;;5003527;28;20212;-86
2023/04/16 05:45:04;;;;;;;21.20;19.00;;;;;;;;;;5006050;28;20217;-87
2023/04/16 05:47:32;;;;;;;21.10;18.97;;;;;;;;;;5006894;28;20233;-88
2023/04/16 05:49:58;;;;;;;21.77;19.43;;;;;;;;;;4999867;28;20223;-87
2023/04/16 05:52:23;;;;;;;20.40;17.50;;;;;;;;;;5003003;28;20220;-85
2023/04/16 05:54:49;;;;;;;24.30;19.80;;;;;;;;;;4992880;28;20704;-87
2023/04/16 05:57:15;;;;;;;22.67;19.07;;;;;;;;;;5008763;28;20215;-88
2023/04/16 05:59:42;;;;;;;21.17;18.87;;;;;;;;;;5002967;28;20604;-86
2023/04/16 06:02:08;;;;;;;23.00;19.20;;;;;;;;;;5014719;28;20228;-85
2023/04/16 06:04:34;;;;;;;21.60;19.07;;;;;;;;;;4987037;28;20219;-87
2023/04/16 06:07:00;;;;;;;20.87;17.97;;;;;;;;;;5015360;28;20680;-87
2023/04/16 06:09:28;;;;;;;25.37;19.17;;;;;;;;;;5017597;28;20276;-87
2023/04/16 06:11:53;;;;;;;20.70;17.37;;;;;;;;;;4987270;28;20243;-87
2023/04/16 06:14:23;;;;;;;19.53;17.53;;;;;;;;;;4989473;28;20295;-87
2023/04/16 06:16:51;;;;;;;19.20;17.20;;;;;;;;;;5011896;28;20275;-87
2023/04/16 06:19:16;;;;;;;20.33;17.50;;;;;;;;;;4996893;28;20224;-88
2023/04/16 06:21:42;;;;;;;19.93;17.77;;;;;;;;;;5005924;28;20801;-87
2023/04/16 06:24:07;;;;;;;19.53;17.53;;;;;;;;;;5006459;28;20223;-87
2023/04/16 06:26:33;;;;;;;18.47;16.57;;;;;;;;;;5010084;28;20219;-88
2023/04/16 06:29:01;;;;;;;20.33;17.80;;;;;;;;;;4989241;28;20287;-87
2023/04/16 06:31:27;;;;;;;19.47;17.47;;;;;;;;;;5008474;28;20222;-87
2023/04/16 06:33:54;;;;;;;19.67;17.53;;;;;;;;;;5007179;28;20235;-87
2023/04/16 06:36:20;;;;;;;19.47;17.37;;;;;;;;;;5009638;28;20661;-87
2023/04/16 06:38:50;;;;;;;19.20;17.20;;;;;;;;;;5018039;28;20287;-87
2023/04/16 06:41:18;;;;;;;18.63;16.70;;;;;;;;;;5001190;28;20263;-87
2023/04/16 06:43:51;;;;;;;19.03;16.60;;;;;;;;;;5003624;28;20223;-86
2023/04/16 06:46:17;;;;;;;18.37;16.33;;;;;;;;;;5028577;28;20293;-88
2023/04/16 06:48:43;;;;;;;19.07;17.10;;;;;;;;;;4991231;28;20620;-87
2023/04/16 06:51:11;;;;;;;20.00;16.93;;;;;;;;;;4991942;28;20221;-86
2023/04/16 06:53:37;;;;;;;19.10;17.03;;;;;;;;;;4999414;28;20227;-87
2023/04/16 06:56:03;;;;;;;19.13;17.13;;;;;;;;;;5007684;28;20228;-85
2023/04/16 06:58:31;;;;;;;19.20;17.33;;;;;;;;;;5005598;28;20223;-87
2023/04/16 07:01:01;;;;;;;18.93;17.03;;;;;;;;;;5007336;28;20238;-87
2023/04/16 07:03:29;;;;;;;19.47;17.47;;;;;;;;;;5018341;28;20226;-87
2023/04/16 07:05:55;;;;;;;19.27;17.27;;;;;;;;;;5009624;28;20268;-86
2023/04/16 07:08:23;;;;;;;19.47;17.47;;;;;;;;;;4989268;28;20234;-87
2023/04/16 07:10:52;;;;;;;21.50;17.53;;;;;;;;;;5005129;28;20215;-87
2023/04/16 07:13:18;;;;;;;23.43;18.57;;;;;;;;;;4988494;28;20281;-87
2023/04/16 07:15:43;;;;;;;19.83;17.83;;;;;;;;;;4985924;28;20209;-87
2023/04/16 07:18:11;;;;;;;20.60;18.50;;;;;;;;;;4986698;28;20224;-86
2023/04/16 07:20:36;;;;;;;20.80;18.60;;;;;;;;;;5020029;28;20228;-88
2023/04/16 07:23:02;;;;;;;20.10;18.00;;;;;;;;;;5016579;28;20752;-85
2023/04/16 07:25:30;;;;;;;22.03;19.67;;;;;;;;;;5018484;28;20253;-86
2023/04/16 07:27:56;;;;;;;20.57;18.47;;;;;;;;;;5002822;28;20223;-88
2023/04/16 07:30:31;;;;;;;20.53;18.33;;;;;;;;;;4998361;28;20216;-89
2023/04/16 07:32:59;;;;;;;21.13;19.03;;;;;;;;;;4992996;28;20219;-88
2023/04/16 07:35:27;;;;;;;22.20;19.90;;;;;;;;;;5005833;28;20222;-80
2023/04/16 07:37:52;;;;;;;22.23;19.93;;;;;;;;;;5015491;28;20224;-79
2023/04/16 07:40:18;;;;;;;22.33;19.63;;;;;;;;;;5014060;28;20242;-78
2023/04/16 07:42:43;;;;;;;21.50;19.40;;;;;;;;;;5016841;28;20223;-80
2023/04/16 07:45:10;;;;;;;21.93;19.67;;;;;;;;;;5016543;28;20300;-79
2023/04/16 07:47:37;;;;;;;22.73;20.33;;;;;;;;;;5009773;28;20274;-80
2023/04/16 07:50:02;;;;;;;25.97;20.20;;;;;;;;;;5004892;28;20711;-79
2023/04/16 07:52:30;;;;;;;23.37;20.97;;;;;;;;;;5002765;28;20243;-79
2023/04/16 07:54:59;;;;;;;22.93;20.63;;;;;;;;;;5014312;28;20220;-81
2023/04/16 07:57:28;;;;;;;24.30;20.40;;;;;;;;;;5020333;28;20215;-79
2023/04/16 07:59:53;;;;;;;22.90;20.63;;;;;;;;;;5043556;28;20227;-78
2023/04/16 08:02:19;;;;;;;22.60;20.40;;;;;;;;;;5020287;28;20272;-79
2023/04/16 08:04:45;;;;;;;23.70;21.27;;;;;;;;;;4992716;28;20217;-80
2023/04/16 08:07:10;;;;;;;23.87;21.57;;;;;;;;;;4991526;28;20234;-80
2023/04/16 08:09:36;;;;;;;23.13;20.93;;;;;;;;;;5036955;28;20224;-81
2023/04/16 08:12:02;;;;;;;23.50;21.00;;;;;;;;;;5025972;28;20224;-80
2023/04/16 08:14:27;;;;;;;24.83;21.57;;;;;;;;;;4987547;28;20231;-80
2023/04/16 08:16:53;;;;;;;23.50;21.00;;;;;;;;;;5019601;28;20252;-78
2023/04/16 08:19:20;;;;;;;24.20;21.67;;;;;;;;;;5018917;28;20227;-79
2023/04/16 08:21:48;;;;;;;24.77;22.23;;;;;;;;;;5002913;28;20227;-80
2023/04/16 08:24:16;;;;;;;23.67;21.27;;;;;;;;;;5000401;28;20231;-78
2023/04/16 08:26:42;;;;;;;23.43;21.13;;;;;;;;;;5006012;28;20226;-79
2023/04/16 08:29:07;;;;;;;23.93;21.37;;;;;;;;;;5015537;28;20215;-80
2023/04/16 08:31:35;;;;;;;25.67;22.90;;;;;;;;;;5020209;28;20225;-79
2023/04/16 08:34:00;;;;;;;24.07;21.77;;;;;;;;;;5035246;28;20227;-79
2023/04/16 08:36:28;;;;;;;25.30;22.70;;;;;;;;;;5016350;28;20219;-80
2023/04/16 08:38:54;;;;;;;24.73;22.20;;;;;;;;;;5028852;28;20269;-80
2023/04/16 08:41:24;;;;;;;26.53;23.83;;;;;;;;;;5021620;28;20235;-79
2023/04/16 08:43:50;;;;;;;25.43;22.73;;;;;;;;;;5023906;28;20225;-80
2023/04/16 08:46:16;;;;;;;25.83;23.20;;;;;;;;;;4987857;28;20220;-79
2023/04/16 08:48:42;;;;;;;26.67;23.77;;;;;;;;;;5015964;28;20224;-80
2023/04/16 08:51:08;;;;;;;29.87;22.80;;;;;;;;;;5002825;28;20273;-79
2023/04/16 08:53:58;;;;;;;28.43;23.50;;;;;;;;;;5006016;28;20232;-78
2023/04/16 08:56:24;;;;;;;26.77;23.93;;;;;;;;;;5041607;28;20235;-79
2023/04/16 08:58:50;;;;;;;26.47;23.67;;;;;;;;;;5008063;28;20227;-78
2023/04/16 09:01:17;;;;;;;25.43;22.90;;;;;;;;;;5012179;28;20237;-77
2023/04/16 09:03:44;;;;;;;26.40;23.60;;;;;;;;;;5021927;28;20223;-77
2023/04/16 09:06:10;;;;;;;26.13;23.73;;;;;;;;;;4978058;28;20888;-80
2023/04/16 09:08:36;;;;;;;25.63;23.23;;;;;;;;;;5008920;28;20224;-80
2023/04/16 09:11:02;;;;;;;27.23;23.97;;;;;;;;;;5004002;28;20245;-80
2023/04/16 09:13:27;;;;;;;27.03;24.27;;;;;;;;;;5027816;28;20229;-79
2023/04/16 09:15:53;;;;;;;27.00;24.33;;;;;;;;;;4992789;28;20918;-80
2023/04/16 09:18:24;;;;;;;26.97;24.27;;;;;;;;;;5025303;28;20218;-79
2023/04/16 09:20:55;;;;;;;28.33;25.33;;;;;;;;;;5005796;28;20244;-80
2023/04/16 09:23:23;;;;;;;27.77;24.97;;;;;;;;;;5005796;28;20830;-79
2023/04/16 09:25:52;;;;;;;29.13;26.23;;;;;;;;;;5036399;28;20225;-79
2023/04/16 09:28:47;;;;;;;28.50;25.50;;;;;;;;;;5024241;28;20219;-78
2023/04/16 09:31:13;;;;;;;26.10;23.43;;;;;;;;;;5014174;28;20289;-81
2023/04/16 09:33:39;;;;;;;26.67;23.93;;;;;;;;;;4988149;28;20231;-80
2023/04/16 09:36:06;;;;;;;26.93;24.20;;;;;;;;;;5014548;28;20236;-79
2023/04/16 09:38:53;;;;;;;28.27;25.20;;;;;;;;;;5026076;28;20268;-79
2023/04/16 09:41:19;;;;;;;27.17;24.40;;;;;;;;;;5022805;28;20218;-78
2023/04/16 09:44:03;;;;;;;27.30;24.50;;;;;;;;;;5006535;28;20221;-78
2023/04/16 09:46:35;;;;;;;26.70;23.93;;;;;;;;;;5005483;28;20218;-80
2023/04/16 09:49:13;;;;;;;28.13;25.23;;;;;;;;;;5015892;28;20223;-79
2023/04/16 09:51:45;;;;;;;26.93;24.00;;;;;;;;;;5020590;28;20706;-80
2023/04/16 09:54:13;;;;;;;26.23;23.43;;;;;;;;;;5023189;28;20214;-79
2023/04/16 09:56:43;;;;;;;25.93;23.40;;;;;;;;;;5012161;28;20233;-80
2023/04/16 09:59:16;;;;;;;25.83;23.23;;;;;;;;;;5014659;28;20234;-80
2023/04/16 10:01:42;;;;;;;25.47;22.93;;;;;;;;;;5006258;28;20572;-80
2023/04/16 10:04:13;;;;;;;25.40;22.73;;;;;;;;;;5008853;28;20224;-78
2023/04/16 10:06:48;;;;;;;24.00;21.70;;;;;;;;;;4993404;28;20234;-81
2023/04/16 10:09:16;;;;;;;23.83;21.27;;;;;;;;;;5033792;28;20225;-79
2023/04/16 10:11:42;;;;;;;25.97;21.37;;;;;;;;;;4991215;28;20264;-80
2023/04/16 10:14:10;;;;;;;23.63;21.33;;;;;;;;;;5026576;28;20322;-81
2023/04/16 10:16:39;;;;;;;23.07;20.80;;;;;;;;;;5007387;28;20220;-80
2023/04/16 10:19:05;;;;;;;24.53;21.30;;;;;;;;;;5005450;28;20231;-80
2023/04/16 10:21:32;;;;;;;24.27;21.73;;;;;;;;;;5015357;28;20829;-81
2023/04/16 10:23:58;;;;;;;23.60;21.10;;;;;;;;;;5007570;28;20227;-82
2023/04/16 10:26:23;;;;;;;23.97;21.27;;;;;;;;;;5003842;28;20219;-80
2023/04/16 10:28:49;;;;;;;23.97;21.37;;;;;;;;;;5004490;28;20212;-81
2023/04/16 10:31:14;;;;;;;21.70;19.50;;;;;;;;;;5005103;28;20594;-80
2023/04/16 10:33:43;;;;;;;21.70;19.53;;;;;;;;;;5006462;28;20219;-80
2023/04/16 10:36:17;;;;;;;22.87;20.47;;;;;;;;;;5013049;28;20223;-81
2023/04/16 10:38:47;;;;;;;22.33;20.03;;;;;;;;;;5003706;28;20702;-82
2023/04/16 10:41:21;;;;;;;21.43;19.40;;;;;;;;;;5007411;28;20215;-81
2023/04/16 10:43:50;;;;;;;20.70;18.60;;;;;;;;;;5040491;28;20335;-81
2023/04/16 10:46:30;;;;;;;19.50;17.60;;;;;;;;;;5036953;28;20287;-80
2023/04/16 10:48:59;;;;;;;19.33;17.40;;;;;;;;;;5024773;28;20227;-79
2023/04/16 10:51:34;;;;;;;18.87;16.97;;;;;;;;;;5007253;28;20211;-82
2023/04/16 10:54:22;;;;;;;19.63;16.97;;;;;;;;;;5019052;28;20231;-80
2023/04/16 10:56:48;;;;;;;18.60;16.80;;;;;;;;;;5016886;28;20230;-81
2023/04/16 10:59:17;;;;;;;17.93;16.23;;;;;;;;;;5005154;28;20791;-81
2023/04/16 11:01:45;;;;;;;17.50;15.53;;;;;;;;;;5005909;28;20318;-80
2023/04/16 11:04:20;;;;;;;16.87;15.20;;;;;;;;;;5018135;28;20210;-79
2023/04/16 11:07:05;;;;;;;17.03;15.43;;;;;;;;;;5039215;28;20599;-81
2023/04/16 11:09:46;;;;;;;16.57;15.07;;;;;;;;;;5053657;28;20226;-82
2023/04/16 11:12:32;;;;;;;18.30;15.20;;;;;;;;;;5017209;28;20225;-79
2023/04/16 11:15:10;;;;;;;17.67;15.73;;;;;;;;;;5037485;28;20306;-80
2023/04/16 11:17:38;;;;;;;16.07;14.47;;;;;;;;;;5034307;28;20222;-77
2023/04/16 11:20:08;;;;;;;16.40;14.80;;;;;;;;;;5053155;28;20701;-77
2023/04/16 11:22:36;;;;;;;17.70;15.97;;;;;;;;;;5040663;28;20212;-80
2023/04/16 11:25:02;;;;;;;18.37;16.57;;;;;;;;;;5007166;28;20215;-81
2023/04/16 11:27:29;;;;;;;17.90;16.23;;;;;;;;;;5001849;28;20227;-81
2023/04/16 11:30:03;;;;;;;19.13;17.20;;;;;;;;;;5006357;28;20219;-82
2023/04/16 11:32:32;;;;;;;18.43;16.73;;;;;;;;;;5004688;28;20301;-81
2023/04/16 11:35:02;;;;;;;19.67;17.70;;;;;;;;;;5023751;28;20221;-80
2023/04/16 11:37:34;;;;;;;19.93;18.13;;;;;;;;;;5012495;28;20277;-79
2023/04/16 11:40:00;;;;;;;19.93;17.93;;;;;;;;;;4996870;28;20269;-81
2023/04/16 11:42:27;;;;;;;21.37;19.27;;;;;;;;;;5025710;28;20642;-81
2023/04/16 11:44:55;;;;;;;20.60;18.50;;;;;;;;;;4988833;28;20895;-78
2023/04/16 11:47:22;;;;;;;19.33;17.47;;;;;;;;;;5020147;28;20225;-78
2023/04/16 11:49:50;;;;;;;19.03;17.10;;;;;;;;;;5011189;28;20281;-78
2023/04/16 11:52:30;;;;;;;17.30;15.60;;;;;;;;;;5009732;28;20212;-79
2023/04/16 11:54:59;;;;;;;19.03;17.23;;;;;;;;;;5024564;28;20230;-82
2023/04/16 11:57:28;;;;;;;19.53;17.67;;;;;;;;;;5033009;28;20607;-82
2023/04/16 11:59:57;;;;;;;18.20;16.47;;;;;;;;;;5009546;28;20220;-79
2023/04/16 12:02:41;;;;;;;18.17;16.47;;;;;;;;;;5002432;28;20225;-78
2023/04/16 12:05:33;;;;;;;17.73;16.03;;;;;;;;;;5001847;28;20216;-80
2023/04/16 12:08:00;;;;;;;18.73;16.60;;;;;;;;;;5010128;28;20222;-80
2023/04/16 12:10:27;;;;;;;19.03;17.30;;;;;;;;;;5018819;28;20237;-79
2023/04/16 12:13:11;;;;;;;18.73;16.90;;;;;;;;;;4984941;28;20220;-77
2023/04/16 12:15:50;;;;;;;18.30;16.57;;;;;;;;;;4982059;28;20302;-79
2023/04/16 12:18:19;;;;;;;15.77;13.77;;;;;;;;;;5039195;28;20228;-82
2023/04/16 12:20:47;;;;;;;17.37;14.83;;;;;;;;;;5018907;28;20227;-77
2023/04/16 12:23:28;;;;;;;16.50;14.80;;;;;;;;;;5022362;28;20244;-78
2023/04/16 12:25:54;;;;;;;16.20;14.67;;;;;;;;;;5017414;28;20590;-79
2023/04/16 12:28:30;;;;;;;16.10;14.50;;;;;;;;;;4983853;28;20211;-79
2023/04/16 12:30:57;;;;;;;15.47;13.97;;;;;;;;;;5013420;28;20227;-78
2023/04/16 12:33:23;;;;;;;15.63;14.03;;;;;;;;;;5020242;28;20224;-77
2023/04/16 12:35:51;;;;;;;14.60;13.20;;;;;;;;;;5021136;28;20280;-79
2023/04/16 12:38:19;;;;;;;13.53;11.70;;;;;;;;;;5013592;28;20272;-79
2023/04/16 12:40:45;;;;;;;13.37;12.13;;;;;;;;;;5004592;28;20235;-81
2023/04/16 12:43:13;;;;;;;12.67;11.43;;;;;;;;;;5032988;28;20215;-81
2023/04/16 12:45:38;;;;;;;11.60;10.60;;;;;;;;;;5013014;28;20235;-81
2023/04/16 12:48:04;;;;;;;12.77;11.47;;;;;;;;;;4989569;28;20307;-81
2023/04/16 12:50:32;;;;;;;12.37;11.10;;;;;;;;;;5024198;28;20617;-79
2023/04/16 12:52:58;;;;;;;13.03;11.77;;;;;;;;;;5011994;28;20249;-80
2023/04/16 12:55:26;;;;;;;13.17;11.97;;;;;;;;;;4998096;28;20295;-82
2023/04/16 12:57:53;;;;;;;13.63;12.23;;;;;;;;;;5001609;28;20219;-82
2023/04/16 13:00:19;;;;;;;13.07;11.77;;;;;;;;;;5017680;28;20234;-78
2023/04/16 13:02:45;;;;;;;12.60;11.30;;;;;;;;;;5002778;28;20227;-79
2023/04/16 13:05:11;;;;;;;12.60;11.30;;;;;;;;;;4996522;28;20226;-82
2023/04/16 13:07:40;;;;;;;11.77;10.53;;;;;;;;;;4984532;28;20227;-84
2023/04/16 13:10:06;;;;;;;11.50;10.50;;;;;;;;;;5000170;28;20227;-82
2023/04/16 13:12:32;;;;;;;11.23;10.13;;;;;;;;;;5027572;28;20299;-82
2023/04/16 13:14:57;;;;;;;11.00;9.97;;;;;;;;;;4997045;28;20252;-80
2023/04/16 13:17:23;;;;;;;11.47;10.20;;;;;;;;;;4998332;28;20245;-82
2023/04/16 13:19:50;;;;;;;10.57;9.47;;;;;;;;;;5036167;28;20302;-82
2023/04/16 13:22:16;;;;;;;11.20;10.10;;;;;;;;;;5002178;28;20231;-80
2023/04/16 13:24:44;;;;;;;11.97;10.77;;;;;;;;;;4987983;28;20591;-79
2023/04/16 13:27:15;;;;;;;11.27;10.13;;;;;;;;;;4998322;28;20593;-82
2023/04/16 13:29:41;;;;;;;12.13;11.03;;;;;;;;;;5005572;28;20302;-76
2023/04/16 13:32:07;;;;;;;11.03;10.13;;;;;;;;;;4998799;28;20505;-79
2023/04/16 13:34:37;;;;;;;9.70;8.40;;;;;;;;;;4986264;28;20226;-81
2023/04/16 13:37:03;;;;;;;9.00;8.20;;;;;;;;;;5004006;28;20219;-81
2023/04/16 13:39:28;;;;;;;9.07;7.73;;;;;;;;;;5000482;28;20607;-79
2023/04/16 13:41:59;;;;;;;7.53;6.80;;;;;;;;;;4990188;28;20211;-79
2023/04/16 13:44:27;;;;;;;6.70;6.10;;;;;;;;;;5009960;28;20220;-78
2023/04/16 13:46:52;;;;;;;6.60;5.90;;;;;;;;;;5000826;28;20246;-79
2023/04/16 13:49:18;;;;;;;3.60;3.30;;;;;;;;;;5018088;28;20792;-79
2023/04/16 13:51:43;;;;;;;3.67;3.37;;;;;;;;;;4997477;28;20226;-80
2023/04/16 13:54:09;;;;;;;6.83;6.23;;;;;;;;;;4985382;28;20586;-81
2023/04/16 13:56:35;;;;;;;4.13;3.73;;;;;;;;;;4992235;28;20696;-81
2023/04/16 13:59:00;;;;;;;5.00;4.60;;;;;;;;;;4990807;28;20228;-81
2023/04/16 14:01:26;;;;;;;4.80;4.50;;;;;;;;;;5023239;28;20231;-81
2023/04/16 14:03:52;;;;;;;5.60;5.10;;;;;;;;;;5005154;28;20223;-79
2023/04/16 14:06:17;;;;;;;6.60;5.90;;;;;;;;;;5007750;28;20230;-81
2023/04/16 14:08:44;;;;;;;6.50;5.77;;;;;;;;;;5025620;28;20219;-81
2023/04/16 14:11:12;;;;;;;6.07;5.57;;;;;;;;;;5024875;28;20269;-82
2023/04/16 14:13:37;;;;;;;7.20;5.70;;;;;;;;;;5006795;28;20732;-80
2023/04/16 14:16:03;;;;;;;6.80;6.10;;;;;;;;;;5022690;28;20223;-81
2023/04/16 14:18:29;;;;;;;7.00;6.40;;;;;;;;;;4993562;28;20242;-81
2023/04/16 14:20:57;;;;;;;7.20;6.50;;;;;;;;;;5024888;28;20245;-81
2023/04/16 14:23:22;;;;;;;7.63;6.93;;;;;;;;;;5005691;28;20277;-83